createdAt,value
2019-01-17T00:02:19.527Z,6.60
2019-01-17T00:05:06.764Z,6.60
2019-01-17T00:07:47.038Z,6.60
2019-01-17T00:10:18.288Z,6.60
2019-01-17T00:12:52.250Z,6.50
2019-01-17T00:15:32.396Z,6.50
2019-01-17T00:18:12.360Z,6.50
2019-01-17T00:20:43.612Z,6.50
2019-01-17T00:23:23.620Z,6.50
2019-01-17T00:26:03.934Z,6.50
2019-01-17T00:28:47.414Z,6.60
2019-01-17T00:31:21.632Z,6.60
2019-01-17T00:33:55.642Z,6.60
2019-01-17T00:36:26.892Z,6.60
2019-01-17T00:39:04.114Z,6.60
2019-01-17T00:41:35.342Z,6.60
2019-01-17T00:44:22.821Z,6.50
2019-01-17T00:46:54.067Z,6.50
2019-01-17T00:49:28.242Z,6.50
2019-01-17T00:52:05.155Z,6.50
2019-01-17T00:54:45.343Z,6.50
2019-01-17T00:57:31.596Z,6.50
2019-01-17T01:00:08.527Z,6.50
2019-01-17T01:02:39.765Z,6.50
2019-01-17T01:05:16.719Z,6.50
2019-01-17T01:08:04.481Z,6.50
2019-01-17T01:10:35.703Z,6.40
2019-01-17T01:13:09.607Z,6.40
2019-01-17T01:15:42.784Z,6.40
2019-01-17T01:18:22.632Z,6.40
2019-01-17T01:21:10.447Z,6.50
2019-01-17T01:23:50.478Z,6.50
2019-01-17T01:26:30.723Z,6.50
2019-01-17T01:29:18.240Z,6.50
2019-01-17T01:31:52.244Z,6.50
2019-01-17T01:34:26.391Z,6.50
2019-01-17T01:37:00.319Z,6.50
2019-01-17T01:39:40.640Z,6.50
2019-01-17T01:42:27.114Z,6.50
2019-01-17T01:44:58.364Z,6.50
2019-01-17T01:47:47.605Z,6.50
2019-01-17T01:50:21.655Z,6.50
2019-01-17T01:53:05.578Z,6.50
2019-01-17T01:55:35.178Z,6.50
2019-01-17T01:58:04.765Z,6.50
2019-01-17T02:00:34.362Z,6.50
2019-01-17T02:03:03.948Z,6.50
2019-01-17T02:05:33.542Z,6.60
2019-01-17T02:08:03.140Z,6.60
2019-01-17T02:10:32.762Z,6.60
2019-01-17T02:13:02.362Z,6.60
2019-01-17T02:15:31.948Z,6.60
2019-01-17T02:18:01.546Z,6.50
2019-01-17T02:20:31.132Z,6.50
2019-01-17T02:23:00.731Z,6.50
2019-01-17T02:25:30.332Z,6.40
2019-01-17T02:27:59.935Z,6.40
2019-01-17T02:30:29.517Z,6.40
2019-01-17T02:32:59.113Z,6.40
2019-01-17T02:35:28.699Z,6.40
2019-01-17T02:37:58.293Z,6.40
2019-01-17T02:40:27.886Z,6.40
2019-01-17T02:42:57.495Z,6.40
2019-01-17T02:45:27.071Z,6.40
2019-01-17T02:47:56.664Z,6.30
2019-01-17T02:50:26.268Z,6.30
2019-01-17T02:52:55.859Z,6.30
2019-01-17T02:55:25.445Z,6.30
2019-01-17T02:57:55.039Z,6.30
2019-01-17T03:00:24.619Z,6.30
2019-01-17T03:02:54.220Z,6.40
2019-01-17T03:05:23.811Z,6.40
2019-01-17T03:07:53.407Z,6.30
2019-01-17T03:10:23.023Z,6.30
2019-01-17T03:12:52.606Z,6.30
2019-01-17T03:15:22.230Z,6.30
2019-01-17T03:17:51.875Z,6.30
2019-01-17T03:20:21.471Z,6.20
2019-01-17T03:22:51.064Z,6.20
2019-01-17T03:25:20.664Z,6.20
2019-01-17T03:27:50.259Z,6.20
2019-01-17T03:30:19.874Z,6.20
2019-01-17T03:32:49.454Z,6.20
2019-01-17T03:35:19.070Z,6.20
2019-01-17T03:37:48.662Z,6.20
2019-01-17T03:40:18.265Z,6.20
2019-01-17T03:42:47.864Z,6.20
2019-01-17T03:45:17.448Z,6.20
2019-01-17T03:47:47.047Z,6.20
2019-01-17T03:50:16.630Z,6.20
2019-01-17T03:52:46.248Z,6.30
2019-01-17T03:55:16.797Z,6.30
2019-01-17T03:57:46.404Z,6.30
2019-01-17T04:00:18.241Z,6.30
2019-01-17T04:02:47.831Z,6.40
2019-01-17T04:05:17.415Z,6.30
2019-01-17T04:07:47.011Z,6.40
2019-01-17T04:10:16.611Z,6.40
2019-01-17T04:12:46.209Z,6.40
2019-01-17T04:15:15.797Z,6.40
2019-01-17T04:17:45.408Z,6.40
2019-01-17T04:20:16.027Z,6.40
2019-01-17T04:22:45.703Z,6.40
2019-01-17T04:25:15.283Z,6.30
2019-01-17T04:27:44.880Z,6.30
2019-01-17T04:30:16.412Z,6.30
2019-01-17T04:32:46.013Z,6.30
2019-01-17T04:35:15.641Z,6.30
2019-01-17T04:37:45.274Z,6.30
2019-01-17T04:40:14.878Z,6.40
2019-01-17T04:42:44.484Z,6.30
2019-01-17T04:45:14.443Z,6.40
2019-01-17T04:47:44.029Z,6.40
2019-01-17T04:50:14.444Z,6.40
2019-01-17T04:52:44.052Z,6.40
2019-01-17T04:55:14.211Z,6.40
2019-01-17T04:57:43.797Z,6.40
2019-01-17T05:00:16.034Z,6.40
2019-01-17T05:02:45.614Z,6.40
2019-01-17T05:05:16.277Z,6.40
2019-01-17T05:07:45.862Z,6.40
2019-01-17T05:10:16.800Z,6.50
2019-01-17T05:12:46.390Z,6.50
2019-01-17T05:15:15.991Z,6.50
2019-01-17T05:17:45.588Z,6.50
2019-01-17T05:20:15.718Z,6.50
2019-01-17T05:22:45.302Z,6.50
2019-01-17T05:25:14.900Z,6.50
2019-01-17T05:27:45.567Z,6.50
2019-01-17T05:30:17.654Z,6.60
2019-01-17T05:32:47.267Z,6.60
2019-01-17T05:35:16.846Z,6.60
2019-01-17T05:37:46.440Z,6.50
2019-01-17T05:40:18.073Z,6.50
2019-01-17T05:42:47.674Z,6.50
2019-01-17T05:45:17.250Z,6.50
2019-01-17T05:47:46.848Z,6.40
2019-01-17T05:50:17.701Z,6.40
2019-01-17T05:52:47.308Z,6.40
2019-01-17T05:55:20.082Z,6.40
2019-01-17T05:57:48.217Z,6.40
2019-01-17T06:00:19.543Z,6.40
2019-01-17T06:02:49.139Z,6.40
2019-01-17T06:05:18.725Z,6.30
2019-01-17T06:07:48.410Z,6.40
2019-01-17T06:10:18.018Z,6.40
2019-01-17T06:12:47.595Z,6.40
2019-01-17T06:15:18.856Z,6.40
2019-01-17T06:17:48.452Z,6.40
2019-01-17T06:20:18.033Z,6.40
2019-01-17T06:22:47.636Z,6.40
2019-01-17T06:25:17.230Z,6.30
2019-01-17T06:27:46.838Z,6.40
2019-01-17T06:30:16.432Z,6.40
2019-01-17T06:32:46.031Z,6.40
2019-01-17T06:35:15.624Z,6.40
2019-01-17T06:37:45.210Z,6.40
2019-01-17T06:40:23.668Z,6.30
2019-01-17T06:42:53.819Z,6.30
2019-01-17T06:45:23.665Z,6.30
2019-01-17T06:47:53.302Z,6.20
2019-01-17T06:50:22.908Z,6.20
2019-01-17T06:52:52.499Z,6.20
2019-01-17T06:55:22.172Z,6.20
2019-01-17T06:57:51.888Z,6.30
2019-01-17T07:00:21.539Z,6.20
2019-01-17T07:02:51.248Z,6.30
2019-01-17T07:05:20.955Z,6.30
2019-01-17T07:07:50.539Z,6.30
2019-01-17T07:10:20.282Z,6.30
2019-01-17T07:12:49.936Z,6.30
2019-01-17T07:15:19.520Z,6.30
2019-01-17T07:17:49.147Z,6.30
2019-01-17T07:20:18.784Z,6.20
2019-01-17T07:22:48.381Z,6.20
2019-01-17T07:25:17.965Z,6.20
2019-01-17T07:27:47.563Z,6.10
2019-01-17T07:30:22.812Z,6.10
2019-01-17T07:32:52.406Z,6.10
2019-01-17T07:35:21.984Z,6.00
2019-01-17T07:37:51.583Z,6.00
2019-01-17T07:40:21.167Z,6.00
2019-01-17T07:42:50.776Z,6.00
2019-01-17T07:45:23.293Z,6.00
2019-01-17T07:47:52.913Z,6.00
2019-01-17T07:50:22.498Z,6.10
2019-01-17T07:52:52.095Z,6.10
2019-01-17T07:55:21.679Z,6.10
2019-01-17T07:57:51.305Z,6.10
2019-01-17T08:00:22.826Z,6.10
2019-01-17T08:02:52.443Z,6.10
2019-01-17T08:05:22.032Z,6.10
2019-01-17T08:07:51.631Z,6.10
2019-01-17T08:10:21.227Z,6.20
2019-01-17T08:12:50.823Z,6.30
2019-01-17T08:15:20.419Z,6.30
2019-01-17T08:17:50.038Z,6.40
2019-01-17T08:20:22.022Z,6.40
2019-01-17T08:22:51.808Z,6.30
2019-01-17T08:25:21.466Z,6.30
2019-01-17T08:27:51.063Z,6.30
2019-01-17T08:30:25.850Z,6.40
2019-01-17T08:32:55.468Z,6.40
2019-01-17T08:35:25.050Z,6.40
2019-01-17T08:37:54.652Z,6.40
2019-01-17T08:40:29.537Z,6.40
2019-01-17T08:42:59.139Z,6.50
2019-01-17T08:45:28.722Z,6.40
2019-01-17T08:47:58.308Z,6.50
2019-01-17T08:50:28.054Z,6.50
2019-01-17T08:52:57.878Z,6.60
2019-01-17T08:55:27.469Z,6.60
2019-01-17T08:57:57.054Z,6.70
2019-01-17T09:00:26.921Z,6.70
2019-01-17T09:02:56.505Z,6.70
2019-01-17T09:05:26.103Z,6.70
2019-01-17T09:07:55.688Z,6.60
2019-01-17T09:10:27.533Z,6.70
2019-01-17T09:12:57.109Z,6.60
2019-01-17T09:15:29.150Z,6.60
2019-01-17T09:17:58.730Z,6.70
2019-01-17T09:20:28.330Z,6.70
2019-01-17T09:22:57.921Z,6.80
2019-01-17T09:25:27.520Z,6.90
2019-01-17T09:27:57.100Z,6.90
2019-01-17T09:30:26.699Z,7.00
2019-01-17T09:32:56.297Z,7.00
2019-01-17T09:35:25.887Z,6.90
2019-01-17T09:37:55.490Z,6.90
2019-01-17T09:40:25.071Z,6.90
2019-01-17T09:42:54.675Z,6.90
2019-01-17T09:45:24.258Z,6.80
2019-01-17T09:47:53.859Z,6.70
2019-01-17T09:50:24.978Z,6.70
2019-01-17T09:52:54.590Z,6.70
2019-01-17T09:55:24.176Z,6.70
2019-01-17T09:57:53.777Z,6.70
2019-01-17T10:00:28.006Z,6.70
2019-01-17T10:02:57.683Z,6.70
2019-01-17T10:05:27.266Z,6.70
2019-01-17T10:07:57.935Z,6.80
2019-01-17T10:10:27.518Z,6.70
2019-01-17T10:12:58.186Z,6.70
2019-01-17T10:15:43.071Z,6.80
2019-01-17T10:18:24.874Z,6.80
2019-01-17T10:21:24.702Z,6.90
2019-01-17T10:24:18.851Z,6.90
2019-01-17T10:27:00.257Z,7.00
2019-01-17T10:29:47.982Z,7.00
2019-01-17T10:32:37.509Z,7.00
2019-01-17T10:35:13.588Z,7.00
2019-01-17T10:37:58.496Z,7.00
2019-01-17T10:40:50.812Z,7.10
2019-01-17T10:43:26.591Z,7.10
2019-01-17T10:46:02.209Z,7.10
2019-01-17T10:48:43.846Z,7.10
2019-01-17T10:51:31.729Z,7.10
2019-01-17T10:54:26.841Z,7.10
2019-01-17T10:56:59.709Z,7.00
2019-01-17T10:59:32.631Z,7.00
2019-01-17T11:02:21.723Z,7.00
2019-01-17T11:04:54.606Z,6.90
2019-01-17T11:07:33.359Z,6.80
2019-01-17T11:10:36.577Z,6.70
2019-01-17T11:13:23.957Z,6.70
2019-01-17T11:16:20.362Z,6.70
2019-01-17T11:18:53.331Z,6.70
2019-01-17T11:21:42.692Z,6.60
2019-01-17T11:24:38.502Z,6.60
2019-01-17T11:27:19.980Z,6.50
2019-01-17T11:29:52.884Z,6.50
2019-01-17T11:32:48.507Z,6.40
2019-01-17T11:35:24.124Z,6.40
2019-01-17T11:38:02.542Z,6.30
2019-01-17T11:40:41.336Z,6.30
2019-01-17T11:43:22.819Z,6.30
2019-01-17T11:46:07.933Z,6.30
2019-01-17T11:48:48.948Z,6.30
2019-01-17T11:51:30.571Z,6.30
2019-01-17T11:54:03.494Z,6.30
2019-01-17T11:56:45.175Z,6.30
2019-01-17T11:59:20.560Z,6.30
2019-01-17T12:02:20.199Z,6.30
2019-01-17T12:04:48.886Z,6.30
2019-01-17T12:07:18.651Z,6.30
2019-01-17T12:09:48.242Z,6.30
2019-01-17T12:12:19.313Z,6.30
2019-01-17T12:14:48.970Z,6.20
2019-01-17T12:17:18.598Z,6.10
2019-01-17T12:19:49.192Z,6.00
2019-01-17T12:22:18.784Z,5.90
2019-01-17T12:24:48.366Z,5.90
2019-01-17T12:27:17.981Z,5.80
2019-01-17T12:29:47.627Z,5.60
2019-01-17T12:32:17.267Z,5.50
2019-01-17T12:34:46.864Z,5.30
2019-01-17T12:37:16.453Z,5.10
2019-01-17T12:39:46.064Z,5.10
2019-01-17T12:42:15.651Z,5.10
2019-01-17T12:44:45.262Z,5.10
2019-01-17T12:47:14.841Z,5.10
2019-01-17T12:49:44.452Z,5.10
2019-01-17T12:52:14.032Z,5.10
2019-01-17T12:54:43.630Z,5.10
2019-01-17T12:57:13.251Z,5.10
2019-01-17T12:59:42.855Z,5.10
2019-01-17T13:02:12.446Z,5.10
2019-01-17T13:04:42.044Z,5.10
2019-01-17T13:07:11.647Z,5.10
2019-01-17T13:09:41.240Z,5.20
2019-01-17T13:12:10.837Z,5.10
2019-01-17T13:14:40.431Z,5.10
2019-01-17T13:17:10.032Z,5.20
2019-01-17T13:19:40.988Z,5.10
2019-01-17T13:22:10.677Z,5.10
2019-01-17T13:24:40.257Z,5.10
2019-01-17T13:27:10.732Z,5.10
2019-01-17T13:29:40.318Z,5.10
2019-01-17T13:32:09.911Z,5.10
2019-01-17T13:34:39.567Z,5.20
2019-01-17T13:37:09.181Z,5.20
2019-01-17T13:39:38.747Z,5.10
2019-01-17T13:42:08.370Z,5.20
2019-01-17T13:44:37.949Z,5.20
2019-01-17T13:47:07.543Z,5.20
2019-01-17T13:49:37.150Z,5.20
2019-01-17T13:52:06.741Z,5.10
2019-01-17T13:54:36.335Z,5.10
2019-01-17T13:57:07.684Z,5.10
2019-01-17T13:59:37.229Z,5.10
2019-01-17T14:02:06.811Z,5.10
2019-01-17T14:04:36.418Z,5.20
2019-01-17T14:07:05.997Z,5.20
2019-01-17T14:09:35.587Z,5.30
2019-01-17T14:12:05.183Z,5.40
2019-01-17T14:14:34.794Z,5.30
2019-01-17T14:17:04.447Z,5.30
2019-01-17T14:19:34.037Z,5.20
2019-01-17T14:22:03.620Z,5.20
2019-01-17T14:24:33.217Z,5.20
2019-01-17T14:27:02.821Z,5.20
2019-01-17T14:29:32.420Z,5.20
2019-01-17T14:32:02.007Z,5.10
2019-01-17T14:34:31.585Z,5.10
2019-01-17T14:37:01.199Z,5.10
2019-01-17T14:39:30.783Z,5.10
2019-01-17T14:42:00.379Z,5.10
2019-01-17T14:44:29.967Z,5.00
2019-01-17T14:46:59.570Z,5.10
2019-01-17T14:49:29.157Z,5.00
2019-01-17T14:51:58.751Z,5.00
2019-01-17T14:54:28.335Z,5.00
2019-01-17T14:56:57.947Z,5.00
2019-01-17T14:59:27.535Z,5.00
2019-01-17T15:01:57.134Z,5.00
2019-01-17T15:04:26.715Z,5.00
2019-01-17T15:06:56.311Z,5.00
2019-01-17T15:09:25.899Z,5.00
2019-01-17T15:11:55.492Z,5.00
2019-01-17T15:14:25.084Z,5.00
2019-01-17T15:16:54.690Z,5.00
2019-01-17T15:19:24.274Z,4.90
2019-01-17T15:21:53.878Z,4.90
2019-01-17T15:24:23.472Z,4.90
2019-01-17T15:26:53.067Z,4.90
2019-01-17T15:29:22.668Z,4.90
2019-01-17T15:31:52.260Z,4.90
2019-01-17T15:34:21.885Z,4.90
2019-01-17T15:36:51.476Z,4.90
2019-01-17T15:39:21.070Z,4.80
2019-01-17T15:41:50.658Z,4.80
2019-01-17T15:44:20.254Z,4.70
2019-01-17T15:46:50.808Z,4.70
2019-01-17T15:49:20.412Z,4.60
2019-01-17T15:51:50.001Z,4.50
2019-01-17T15:54:19.628Z,4.50
2019-01-17T15:56:49.207Z,4.50
2019-01-17T15:59:23.229Z,4.50
2019-01-17T16:01:50.119Z,4.50
2019-01-17T16:04:19.720Z,4.40
2019-01-17T16:06:49.304Z,4.40
2019-01-17T16:09:18.917Z,4.30
2019-01-17T16:11:48.486Z,4.20
2019-01-17T16:14:18.090Z,4.20
2019-01-17T16:16:48.354Z,4.20
2019-01-17T16:19:18.178Z,4.20
2019-01-17T16:21:47.775Z,4.10
2019-01-17T16:24:17.372Z,4.00
2019-01-17T16:26:46.979Z,4.00
2019-01-17T16:29:16.677Z,4.00
2019-01-17T16:31:46.355Z,4.10
2019-01-17T16:34:16.113Z,4.10
2019-01-17T16:36:45.717Z,4.10
2019-01-17T16:39:15.311Z,4.00
2019-01-17T16:41:44.911Z,4.00
2019-01-17T16:44:15.327Z,4.00
2019-01-17T16:46:44.939Z,3.90
2019-01-17T16:49:14.532Z,3.90
2019-01-17T16:51:44.140Z,3.90
2019-01-17T16:54:13.727Z,3.90
2019-01-17T16:56:43.324Z,3.90
2019-01-17T16:59:12.920Z,3.80
2019-01-17T17:01:42.519Z,3.70
2019-01-17T17:04:12.107Z,3.70
2019-01-17T17:06:44.414Z,3.70
2019-01-17T17:09:14.003Z,3.70
2019-01-17T17:11:43.602Z,3.70
2019-01-17T17:14:13.219Z,3.80
2019-01-17T17:16:42.802Z,3.80
2019-01-17T17:19:12.401Z,3.90
2019-01-17T17:21:41.983Z,3.90
2019-01-17T17:24:11.577Z,3.90
2019-01-17T17:26:41.163Z,3.90
2019-01-17T17:29:10.767Z,4.00
2019-01-17T17:31:40.363Z,4.00
2019-01-17T17:34:09.959Z,4.00
2019-01-17T17:36:39.547Z,4.00
2019-01-17T17:39:09.165Z,4.00
2019-01-17T17:41:38.765Z,3.90
2019-01-17T17:44:08.371Z,3.90
2019-01-17T17:46:37.960Z,4.00
2019-01-17T17:49:07.559Z,4.00
2019-01-17T17:51:43.315Z,3.90
2019-01-17T17:54:12.920Z,3.90
2019-01-17T17:56:42.507Z,3.90
2019-01-17T17:59:12.171Z,3.80
2019-01-17T18:01:42.144Z,3.80
2019-01-17T18:04:11.761Z,3.90
2019-01-17T18:06:41.351Z,3.90
2019-01-17T18:09:10.955Z,3.90
2019-01-17T18:11:40.569Z,3.90
2019-01-17T18:14:10.163Z,3.90
2019-01-17T18:16:39.773Z,3.90
2019-01-17T18:19:09.439Z,4.00
2019-01-17T18:21:39.047Z,4.00
2019-01-17T18:24:08.643Z,4.00
2019-01-17T18:26:38.261Z,3.90
2019-01-17T18:29:07.859Z,3.90
2019-01-17T18:31:37.471Z,3.90
2019-01-17T18:34:07.055Z,4.00
2019-01-17T18:36:36.662Z,4.00
2019-01-17T18:39:09.063Z,3.90
2019-01-17T18:41:38.663Z,3.90
2019-01-17T18:44:09.323Z,3.80
2019-01-17T18:46:38.932Z,3.80
2019-01-17T18:49:08.795Z,3.70
2019-01-17T18:51:38.397Z,3.60
2019-01-17T18:54:08.003Z,3.60
2019-01-17T18:56:37.609Z,3.60
2019-01-17T18:59:07.203Z,3.60
2019-01-17T19:01:37.860Z,3.60
2019-01-17T19:04:07.471Z,3.50
2019-01-17T19:06:37.068Z,3.50
2019-01-17T19:09:07.038Z,3.40
2019-01-17T19:11:36.642Z,3.30
2019-01-17T19:14:06.243Z,3.20
2019-01-17T19:16:35.836Z,3.30
2019-01-17T19:19:05.479Z,3.30
2019-01-17T19:21:35.058Z,3.20
2019-01-17T19:24:04.659Z,3.20
2019-01-17T19:26:34.255Z,3.20
2019-01-17T19:29:04.864Z,3.20
2019-01-17T19:31:34.439Z,3.10
2019-01-17T19:34:04.046Z,3.10
2019-01-17T19:36:33.634Z,3.30
2019-01-17T19:39:05.060Z,3.30
2019-01-17T19:41:35.817Z,3.20
2019-01-17T19:44:05.602Z,3.20
2019-01-17T19:46:35.232Z,3.20
2019-01-17T19:49:05.969Z,3.10
2019-01-17T19:51:35.715Z,3.00
2019-01-17T19:54:05.428Z,2.90
2019-01-17T19:56:35.002Z,2.80
2019-01-17T19:59:04.607Z,2.90
2019-01-17T20:01:34.340Z,2.90
2019-01-17T20:04:04.102Z,2.90
2019-01-17T20:06:33.854Z,2.90
2019-01-17T20:09:06.950Z,2.80
2019-01-17T20:11:36.588Z,2.80
2019-01-17T20:14:06.196Z,2.80
2019-01-17T20:16:35.784Z,2.60
2019-01-17T20:19:05.754Z,2.60
2019-01-17T20:21:35.474Z,2.70
2019-01-17T20:24:05.128Z,2.80
2019-01-17T20:26:34.734Z,2.80
2019-01-17T20:29:04.330Z,2.70
2019-01-17T20:31:34.794Z,2.70
2019-01-17T20:34:04.376Z,2.60
2019-01-17T20:36:33.983Z,2.60
2019-01-17T20:39:04.751Z,2.50
2019-01-17T20:41:34.355Z,2.60
2019-01-17T20:44:03.956Z,2.60
2019-01-17T20:46:33.566Z,2.70
2019-01-17T20:49:03.150Z,2.70
2019-01-17T20:51:32.799Z,2.70
2019-01-17T20:54:02.396Z,2.70
2019-01-17T20:56:32.017Z,2.70
2019-01-17T20:59:01.628Z,2.60
2019-01-17T21:01:37.124Z,2.70
2019-01-17T21:04:06.875Z,2.70
2019-01-17T21:06:36.498Z,2.70
2019-01-17T21:09:08.397Z,2.80
2019-01-17T21:11:38.085Z,2.70
2019-01-17T21:14:07.686Z,2.80
2019-01-17T21:16:37.309Z,2.80
2019-01-17T21:19:06.924Z,2.70
2019-01-17T21:21:36.542Z,2.80
2019-01-17T21:24:06.154Z,2.70
2019-01-17T21:26:35.774Z,2.70
2019-01-17T21:29:06.195Z,2.70
2019-01-17T21:31:35.811Z,2.70
2019-01-17T21:34:05.428Z,2.60
2019-01-17T21:36:35.049Z,2.60
2019-01-17T21:39:06.702Z,2.70
2019-01-17T21:41:36.367Z,2.70
2019-01-17T21:44:05.994Z,2.80
2019-01-17T21:46:35.586Z,2.80
2019-01-17T21:49:05.190Z,2.90
2019-01-17T21:51:34.862Z,2.90
2019-01-17T21:54:04.494Z,3.00
2019-01-17T21:56:34.092Z,3.00
2019-01-17T21:59:03.776Z,2.90
2019-01-17T22:01:33.368Z,2.90
2019-01-17T22:04:02.968Z,3.00
2019-01-17T22:06:52.284Z,3.00
2019-01-17T22:09:21.898Z,2.90
2019-01-17T22:11:51.492Z,3.00
2019-01-17T22:14:21.106Z,3.00
2019-01-17T22:16:50.698Z,2.90
2019-01-17T22:19:20.315Z,3.00
2019-01-17T22:21:50.968Z,3.00
2019-01-17T22:24:20.566Z,2.90
2019-01-17T22:26:50.160Z,2.90
2019-01-17T22:29:19.766Z,2.80
2019-01-17T22:31:49.432Z,2.80
2019-01-17T22:34:19.066Z,2.70
2019-01-17T22:36:48.684Z,2.70
2019-01-17T22:39:18.289Z,2.70
2019-01-17T22:41:47.878Z,2.60
2019-01-17T22:44:17.564Z,2.60
2019-01-17T22:46:47.174Z,2.60
2019-01-17T22:49:16.754Z,2.60
2019-01-17T22:51:46.376Z,2.50
2019-01-17T22:54:15.960Z,2.50
2019-01-17T22:56:45.562Z,2.40
2019-01-17T22:59:15.157Z,2.50
2019-01-17T23:01:44.780Z,2.40
2019-01-17T23:04:14.362Z,2.40
2019-01-17T23:06:43.966Z,2.40
2019-01-17T23:09:13.583Z,2.30
2019-01-17T23:11:43.176Z,2.40
2019-01-17T23:14:12.770Z,2.40
2019-01-17T23:16:42.390Z,2.30
2019-01-17T23:19:11.984Z,2.30
2019-01-17T23:21:41.591Z,2.30
2019-01-17T23:24:11.192Z,2.30
2019-01-17T23:26:40.798Z,2.40
2019-01-17T23:29:15.921Z,2.40
2019-01-17T23:31:41.690Z,2.40
2019-01-17T23:34:11.282Z,2.40
2019-01-17T23:36:40.894Z,2.30
2019-01-17T23:39:11.666Z,2.30
2019-01-17T23:41:41.256Z,2.30
2019-01-17T23:44:10.857Z,2.30
2019-01-17T23:46:40.454Z,2.30
2019-01-17T23:49:10.074Z,2.30
2019-01-17T23:51:39.658Z,2.30
2019-01-17T23:54:09.266Z,2.30
2019-01-17T23:56:38.868Z,2.20
2019-01-17T23:59:08.466Z,2.30
